sensor_id;sensor_type;location;lat;lon;timestamp;P1;durP1;ratioP1;P2;durP2;ratioP2
25439;SDS011;13365;52.208;5.488;2022-09-03T00:00:16;3.85;;;1.20;;
25439;SDS011;13365;52.208;5.488;2022-09-03T00:02:44;6.13;;;1.30;;
25439;SDS011;13365;52.208;5.488;2022-09-03T00:05:20;3.53;;;1.20;;
25439;SDS011;13365;52.208;5.488;2022-09-03T00:13:23;5.03;;;1.13;;
25439;SDS011;13365;52.208;5.488;2022-09-03T00:15:54;3.70;;;0.93;;
25439;SDS011;13365;52.208;5.488;2022-09-03T00:18:22;1.67;;;0.98;;
25439;SDS011;13365;52.208;5.488;2022-09-03T00:20:56;5.15;;;1.13;;
25439;SDS011;13365;52.208;5.488;2022-09-03T00:23:32;2.40;;;1.25;;
25439;SDS011;13365;52.208;5.488;2022-09-03T00:26:07;3.25;;;1.02;;
25439;SDS011;13365;52.208;5.488;2022-09-03T00:28:41;4.55;;;1.35;;
25439;SDS011;13365;52.208;5.488;2022-09-03T00:33:42;2.42;;;0.90;;
25439;SDS011;13365;52.208;5.488;2022-09-03T00:38:40;3.28;;;0.93;;
25439;SDS011;13365;52.208;5.488;2022-09-03T00:41:14;4.10;;;1.20;;
25439;SDS011;13365;52.208;5.488;2022-09-03T00:44:21;1.00;;;0.65;;
25439;SDS011;13365;52.208;5.488;2022-09-03T00:47:08;8.27;;;1.13;;
25439;SDS011;13365;52.208;5.488;2022-09-03T00:55:05;5.35;;;1.02;;
25439;SDS011;13365;52.208;5.488;2022-09-03T00:57:45;4.78;;;1.33;;
25439;SDS011;13365;52.208;5.488;2022-09-03T01:00:20;5.10;;;1.05;;
25439;SDS011;13365;52.208;5.488;2022-09-03T01:05:29;2.80;;;1.23;;
25439;SDS011;13365;52.208;5.488;2022-09-03T01:10:56;2.33;;;1.05;;
25439;SDS011;13365;52.208;5.488;2022-09-03T01:13:40;5.68;;;1.25;;
25439;SDS011;13365;52.208;5.488;2022-09-03T01:18:50;2.47;;;1.05;;
25439;SDS011;13365;52.208;5.488;2022-09-03T01:27:27;5.13;;;1.35;;
25439;SDS011;13365;52.208;5.488;2022-09-03T01:30:02;3.28;;;1.13;;
25439;SDS011;13365;52.208;5.488;2022-09-03T01:37:53;2.78;;;1.17;;
25439;SDS011;13365;52.208;5.488;2022-09-03T02:00:30;1.40;;;0.98;;
25439;SDS011;13365;52.208;5.488;2022-09-03T02:02:59;1.50;;;0.80;;
25439;SDS011;13365;52.208;5.488;2022-09-03T02:05:29;5.13;;;1.30;;
25439;SDS011;13365;52.208;5.488;2022-09-03T02:07:56;3.08;;;1.15;;
25439;SDS011;13365;52.208;5.488;2022-09-03T02:10:39;2.35;;;1.27;;
25439;SDS011;13365;52.208;5.488;2022-09-03T02:13:07;4.85;;;1.40;;
25439;SDS011;13365;52.208;5.488;2022-09-03T02:15:36;2.05;;;1.02;;
25439;SDS011;13365;52.208;5.488;2022-09-03T02:18:05;2.90;;;1.20;;
25439;SDS011;13365;52.208;5.488;2022-09-03T02:20:35;1.60;;;0.95;;
25439;SDS011;13365;52.208;5.488;2022-09-03T02:23:02;2.08;;;1.00;;
25439;SDS011;13365;52.208;5.488;2022-09-03T02:25:39;2.72;;;0.85;;
25439;SDS011;13365;52.208;5.488;2022-09-03T02:28:08;3.00;;;1.20;;
25439;SDS011;13365;52.208;5.488;2022-09-03T02:30:34;8.02;;;1.13;;
25439;SDS011;13365;52.208;5.488;2022-09-03T02:33:00;3.20;;;0.98;;
25439;SDS011;13365;52.208;5.488;2022-09-03T02:35:27;2.88;;;1.38;;
25439;SDS011;13365;52.208;5.488;2022-09-03T02:37:53;2.97;;;1.25;;
25439;SDS011;13365;52.208;5.488;2022-09-03T02:40:18;2.17;;;1.17;;
25439;SDS011;13365;52.208;5.488;2022-09-03T02:42:44;2.10;;;1.10;;
25439;SDS011;13365;52.208;5.488;2022-09-03T02:45:25;3.00;;;1.25;;
25439;SDS011;13365;52.208;5.488;2022-09-03T02:47:53;3.97;;;1.30;;
25439;SDS011;13365;52.208;5.488;2022-09-03T02:50:21;7.35;;;1.73;;
25439;SDS011;13365;52.208;5.488;2022-09-03T02:52:47;1.58;;;1.10;;
25439;SDS011;13365;52.208;5.488;2022-09-03T02:55:12;1.77;;;1.10;;
25439;SDS011;13365;52.208;5.488;2022-09-03T02:57:38;4.30;;;1.08;;
25439;SDS011;13365;52.208;5.488;2022-09-03T03:00:04;3.78;;;0.98;;
25439;SDS011;13365;52.208;5.488;2022-09-03T03:02:30;3.83;;;1.40;;
25439;SDS011;13365;52.208;5.488;2022-09-03T03:04:55;1.83;;;1.10;;
25439;SDS011;13365;52.208;5.488;2022-09-03T03:07:21;5.35;;;1.23;;
25439;SDS011;13365;52.208;5.488;2022-09-03T03:09:47;2.38;;;1.00;;
25439;SDS011;13365;52.208;5.488;2022-09-03T03:12:12;4.32;;;1.13;;
25439;SDS011;13365;52.208;5.488;2022-09-03T03:14:38;4.13;;;1.10;;
25439;SDS011;13365;52.208;5.488;2022-09-03T03:17:03;4.40;;;1.05;;
25439;SDS011;13365;52.208;5.488;2022-09-03T03:19:29;2.60;;;1.23;;
25439;SDS011;13365;52.208;5.488;2022-09-03T03:21:54;4.47;;;1.20;;
25439;SDS011;13365;52.208;5.488;2022-09-03T03:24:20;3.22;;;1.10;;
25439;SDS011;13365;52.208;5.488;2022-09-03T03:26:46;2.70;;;1.25;;
25439;SDS011;13365;52.208;5.488;2022-09-03T03:29:15;2.22;;;1.35;;
25439;SDS011;13365;52.208;5.488;2022-09-03T03:31:41;3.00;;;1.05;;
25439;SDS011;13365;52.208;5.488;2022-09-03T03:34:07;2.03;;;1.23;;
25439;SDS011;13365;52.208;5.488;2022-09-03T03:36:33;2.05;;;0.95;;
25439;SDS011;13365;52.208;5.488;2022-09-03T03:39:00;7.47;;;1.25;;
25439;SDS011;13365;52.208;5.488;2022-09-03T03:41:27;4.93;;;1.42;;
25439;SDS011;13365;52.208;5.488;2022-09-03T03:43:53;4.68;;;1.00;;
25439;SDS011;13365;52.208;5.488;2022-09-03T03:46:20;1.90;;;0.95;;
25439;SDS011;13365;52.208;5.488;2022-09-03T03:48:47;2.63;;;1.13;;
25439;SDS011;13365;52.208;5.488;2022-09-03T03:51:13;3.88;;;1.13;;
25439;SDS011;13365;52.208;5.488;2022-09-03T03:53:39;1.80;;;1.05;;
25439;SDS011;13365;52.208;5.488;2022-09-03T03:56:06;1.98;;;1.10;;
25439;SDS011;13365;52.208;5.488;2022-09-03T03:58:33;4.50;;;1.02;;
25439;SDS011;13365;52.208;5.488;2022-09-03T04:01:05;1.40;;;1.00;;
25439;SDS011;13365;52.208;5.488;2022-09-03T04:03:32;1.80;;;1.07;;
25439;SDS011;13365;52.208;5.488;2022-09-03T04:05:58;2.50;;;1.20;;
25439;SDS011;13365;52.208;5.488;2022-09-03T04:08:28;3.22;;;1.08;;
25439;SDS011;13365;52.208;5.488;2022-09-03T04:10:58;4.20;;;1.20;;
25439;SDS011;13365;52.208;5.488;2022-09-03T04:13:27;3.00;;;1.30;;
25439;SDS011;13365;52.208;5.488;2022-09-03T04:16:00;5.15;;;0.98;;
25439;SDS011;13365;52.208;5.488;2022-09-03T04:18:31;2.88;;;1.73;;
25439;SDS011;13365;52.208;5.488;2022-09-03T04:20:58;11.15;;;1.58;;
25439;SDS011;13365;52.208;5.488;2022-09-03T04:23:28;2.40;;;1.15;;
25439;SDS011;13365;52.208;5.488;2022-09-03T04:25:54;3.05;;;0.90;;
25439;SDS011;13365;52.208;5.488;2022-09-03T04:28:20;3.65;;;1.25;;
25439;SDS011;13365;52.208;5.488;2022-09-03T04:30:46;4.90;;;1.10;;
25439;SDS011;13365;52.208;5.488;2022-09-03T04:33:12;1.77;;;1.00;;
25439;SDS011;13365;52.208;5.488;2022-09-03T04:35:37;2.88;;;1.42;;
25439;SDS011;13365;52.208;5.488;2022-09-03T04:38:05;6.22;;;1.08;;
25439;SDS011;13365;52.208;5.488;2022-09-03T04:40:31;2.08;;;1.23;;
25439;SDS011;13365;52.208;5.488;2022-09-03T04:42:57;2.95;;;1.10;;
25439;SDS011;13365;52.208;5.488;2022-09-03T04:45:23;2.25;;;1.02;;
25439;SDS011;13365;52.208;5.488;2022-09-03T04:48:22;3.75;;;1.25;;
25439;SDS011;13365;52.208;5.488;2022-09-03T04:50:41;3.08;;;1.10;;
25439;SDS011;13365;52.208;5.488;2022-09-03T04:53:06;3.33;;;1.10;;
25439;SDS011;13365;52.208;5.488;2022-09-03T04:55:35;2.40;;;1.08;;
25439;SDS011;13365;52.208;5.488;2022-09-03T04:58:02;3.35;;;0.98;;
25439;SDS011;13365;52.208;5.488;2022-09-03T05:00:28;2.00;;;0.95;;
25439;SDS011;13365;52.208;5.488;2022-09-03T05:02:54;4.43;;;1.10;;
25439;SDS011;13365;52.208;5.488;2022-09-03T05:05:19;2.08;;;1.30;;
25439;SDS011;13365;52.208;5.488;2022-09-03T05:07:45;1.70;;;0.82;;
25439;SDS011;13365;52.208;5.488;2022-09-03T05:10:11;4.45;;;1.10;;
25439;SDS011;13365;52.208;5.488;2022-09-03T05:12:44;3.05;;;0.93;;
25439;SDS011;13365;52.208;5.488;2022-09-03T05:15:11;3.28;;;1.10;;
25439;SDS011;13365;52.208;5.488;2022-09-03T05:17:36;2.15;;;1.00;;
25439;SDS011;13365;52.208;5.488;2022-09-03T05:20:03;3.60;;;1.30;;
25439;SDS011;13365;52.208;5.488;2022-09-03T05:22:30;4.57;;;1.30;;
25439;SDS011;13365;52.208;5.488;2022-09-03T05:24:56;3.25;;;0.88;;
25439;SDS011;13365;52.208;5.488;2022-09-03T05:27:21;3.40;;;0.93;;
25439;SDS011;13365;52.208;5.488;2022-09-03T05:29:47;2.33;;;0.88;;
25439;SDS011;13365;52.208;5.488;2022-09-03T05:32:13;2.88;;;1.08;;
25439;SDS011;13365;52.208;5.488;2022-09-03T05:34:40;2.10;;;0.98;;
25439;SDS011;13365;52.208;5.488;2022-09-03T05:37:06;2.95;;;0.73;;
25439;SDS011;13365;52.208;5.488;2022-09-03T05:39:32;3.45;;;1.05;;
25439;SDS011;13365;52.208;5.488;2022-09-03T05:41:57;2.60;;;1.17;;
25439;SDS011;13365;52.208;5.488;2022-09-03T05:44:23;1.25;;;0.88;;
25439;SDS011;13365;52.208;5.488;2022-09-03T05:46:48;2.20;;;1.20;;
25439;SDS011;13365;52.208;5.488;2022-09-03T05:49:15;2.95;;;0.95;;
25439;SDS011;13365;52.208;5.488;2022-09-03T05:51:41;1.65;;;0.80;;
25439;SDS011;13365;52.208;5.488;2022-09-03T05:54:08;3.90;;;0.98;;
25439;SDS011;13365;52.208;5.488;2022-09-03T05:56:34;0.95;;;0.70;;
25439;SDS011;13365;52.208;5.488;2022-09-03T05:59:04;4.57;;;1.08;;
25439;SDS011;13365;52.208;5.488;2022-09-03T06:01:34;4.45;;;1.33;;
25439;SDS011;13365;52.208;5.488;2022-09-03T06:04:08;2.47;;;0.90;;
25439;SDS011;13365;52.208;5.488;2022-09-03T06:06:37;1.95;;;1.10;;
25439;SDS011;13365;52.208;5.488;2022-09-03T06:09:07;3.10;;;0.70;;
25439;SDS011;13365;52.208;5.488;2022-09-03T06:11:38;3.10;;;1.17;;
25439;SDS011;13365;52.208;5.488;2022-09-03T06:14:05;2.47;;;0.73;;
25439;SDS011;13365;52.208;5.488;2022-09-03T06:16:33;3.40;;;0.90;;
25439;SDS011;13365;52.208;5.488;2022-09-03T06:19:00;2.67;;;0.95;;
25439;SDS011;13365;52.208;5.488;2022-09-03T06:21:26;1.67;;;0.80;;
25439;SDS011;13365;52.208;5.488;2022-09-03T06:23:53;2.97;;;0.95;;
25439;SDS011;13365;52.208;5.488;2022-09-03T06:26:21;3.80;;;1.00;;
25439;SDS011;13365;52.208;5.488;2022-09-03T06:28:47;0.63;;;0.63;;
25439;SDS011;13365;52.208;5.488;2022-09-03T06:31:14;3.25;;;0.93;;
25439;SDS011;13365;52.208;5.488;2022-09-03T06:33:41;6.45;;;1.20;;
25439;SDS011;13365;52.208;5.488;2022-09-03T06:36:09;4.07;;;0.80;;
25439;SDS011;13365;52.208;5.488;2022-09-03T06:38:37;1.75;;;0.80;;
25439;SDS011;13365;52.208;5.488;2022-09-03T06:41:07;2.53;;;1.10;;
25439;SDS011;13365;52.208;5.488;2022-09-03T06:43:38;4.30;;;1.30;;
25439;SDS011;13365;52.208;5.488;2022-09-03T06:48:35;2.50;;;1.13;;
25439;SDS011;13365;52.208;5.488;2022-09-03T06:51:07;2.28;;;0.90;;
25439;SDS011;13365;52.208;5.488;2022-09-03T06:53:37;5.47;;;1.17;;
25439;SDS011;13365;52.208;5.488;2022-09-03T06:56:07;1.73;;;0.80;;
25439;SDS011;13365;52.208;5.488;2022-09-03T06:58:34;4.22;;;0.85;;
25439;SDS011;13365;52.208;5.488;2022-09-03T07:01:09;5.65;;;1.05;;
25439;SDS011;13365;52.208;5.488;2022-09-03T07:03:41;1.80;;;0.90;;
25439;SDS011;13365;52.208;5.488;2022-09-03T07:06:09;2.58;;;0.63;;
25439;SDS011;13365;52.208;5.488;2022-09-03T07:11:07;4.70;;;1.02;;
25439;SDS011;13365;52.208;5.488;2022-09-03T07:13:35;5.97;;;1.00;;
25439;SDS011;13365;52.208;5.488;2022-09-03T07:16:15;3.75;;;0.90;;
25439;SDS011;13365;52.208;5.488;2022-09-03T07:18:45;2.08;;;1.00;;
25439;SDS011;13365;52.208;5.488;2022-09-03T07:21:12;1.70;;;0.90;;
25439;SDS011;13365;52.208;5.488;2022-09-03T07:23:46;2.33;;;0.93;;
25439;SDS011;13365;52.208;5.488;2022-09-03T07:26:16;3.20;;;0.95;;
25439;SDS011;13365;52.208;5.488;2022-09-03T07:28:44;1.85;;;0.85;;
25439;SDS011;13365;52.208;5.488;2022-09-03T07:31:15;3.10;;;0.90;;
25439;SDS011;13365;52.208;5.488;2022-09-03T07:33:54;2.85;;;0.95;;
25439;SDS011;13365;52.208;5.488;2022-09-03T07:36:20;6.13;;;0.77;;
25439;SDS011;13365;52.208;5.488;2022-09-03T07:38:47;2.45;;;1.05;;
25439;SDS011;13365;52.208;5.488;2022-09-03T07:41:14;3.92;;;1.20;;
25439;SDS011;13365;52.208;5.488;2022-09-03T07:43:40;2.17;;;0.70;;
25439;SDS011;13365;52.208;5.488;2022-09-03T07:46:14;2.85;;;1.08;;
25439;SDS011;13365;52.208;5.488;2022-09-03T07:48:53;4.82;;;1.00;;
25439;SDS011;13365;52.208;5.488;2022-09-03T07:51:21;1.25;;;0.82;;
25439;SDS011;13365;52.208;5.488;2022-09-03T07:53:50;2.13;;;0.90;;
25439;SDS011;13365;52.208;5.488;2022-09-03T07:56:17;2.25;;;0.85;;
25439;SDS011;13365;52.208;5.488;2022-09-03T07:58:43;5.10;;;1.10;;
25439;SDS011;13365;52.208;5.488;2022-09-03T08:01:09;3.25;;;0.80;;
25439;SDS011;13365;52.208;5.488;2022-09-03T08:03:37;2.22;;;0.70;;
25439;SDS011;13365;52.208;5.488;2022-09-03T08:06:06;4.15;;;1.15;;
25439;SDS011;13365;52.208;5.488;2022-09-03T08:08:33;3.30;;;1.00;;
25439;SDS011;13365;52.208;5.488;2022-09-03T08:11:07;1.80;;;1.20;;
25439;SDS011;13365;52.208;5.488;2022-09-03T08:13:37;4.93;;;1.08;;
25439;SDS011;13365;52.208;5.488;2022-09-03T08:16:05;0.93;;;0.73;;
25439;SDS011;13365;52.208;5.488;2022-09-03T08:18:32;5.97;;;1.20;;
25439;SDS011;13365;52.208;5.488;2022-09-03T08:21:02;2.60;;;0.77;;
25439;SDS011;13365;52.208;5.488;2022-09-03T08:23:48;1.98;;;1.17;;
25439;SDS011;13365;52.208;5.488;2022-09-03T08:26:15;4.22;;;1.02;;
25439;SDS011;13365;52.208;5.488;2022-09-03T08:28:42;2.88;;;1.00;;
25439;SDS011;13365;52.208;5.488;2022-09-03T08:31:08;3.58;;;1.17;;
25439;SDS011;13365;52.208;5.488;2022-09-03T08:33:36;2.00;;;0.90;;
25439;SDS011;13365;52.208;5.488;2022-09-03T08:36:04;1.67;;;0.80;;
25439;SDS011;13365;52.208;5.488;2022-09-03T08:38:31;5.40;;;1.00;;
25439;SDS011;13365;52.208;5.488;2022-09-03T08:43:53;7.95;;;1.30;;
25439;SDS011;13365;52.208;5.488;2022-09-03T08:49:42;9.82;;;1.42;;
25439;SDS011;13365;52.208;5.488;2022-09-03T08:55:37;7.85;;;0.98;;
25439;SDS011;13365;52.208;5.488;2022-09-03T08:58:27;3.05;;;0.88;;
25439;SDS011;13365;52.208;5.488;2022-09-03T09:01:00;1.23;;;0.93;;
25439;SDS011;13365;52.208;5.488;2022-09-03T09:06:35;2.88;;;1.00;;
25439;SDS011;13365;52.208;5.488;2022-09-03T09:09:21;6.22;;;1.20;;
25439;SDS011;13365;52.208;5.488;2022-09-03T09:18:22;2.83;;;1.13;;
25439;SDS011;13365;52.208;5.488;2022-09-03T09:21:06;1.70;;;0.95;;
25439;SDS011;13365;52.208;5.488;2022-09-03T09:23:34;3.28;;;0.80;;
25439;SDS011;13365;52.208;5.488;2022-09-03T09:26:06;4.53;;;0.90;;
25439;SDS011;13365;52.208;5.488;2022-09-03T09:28:36;4.15;;;1.02;;
25439;SDS011;13365;52.208;5.488;2022-09-03T09:31:03;6.55;;;0.95;;
25439;SDS011;13365;52.208;5.488;2022-09-03T09:33:31;1.10;;;0.80;;
25439;SDS011;13365;52.208;5.488;2022-09-03T09:36:02;2.83;;;0.60;;
25439;SDS011;13365;52.208;5.488;2022-09-03T09:38:38;8.88;;;1.30;;
25439;SDS011;13365;52.208;5.488;2022-09-03T09:41:11;1.55;;;0.68;;
25439;SDS011;13365;52.208;5.488;2022-09-03T09:43:39;2.42;;;0.85;;
25439;SDS011;13365;52.208;5.488;2022-09-03T09:46:24;2.47;;;0.90;;
25439;SDS011;13365;52.208;5.488;2022-09-03T09:48:58;2.95;;;1.13;;
25439;SDS011;13365;52.208;5.488;2022-09-03T09:51:24;1.50;;;0.73;;
25439;SDS011;13365;52.208;5.488;2022-09-03T09:54:02;7.25;;;1.67;;
25439;SDS011;13365;52.208;5.488;2022-09-03T09:56:41;1.58;;;1.00;;
25439;SDS011;13365;52.208;5.488;2022-09-03T09:59:08;4.40;;;0.70;;
25439;SDS011;13365;52.208;5.488;2022-09-03T10:01:36;2.13;;;0.63;;
25439;SDS011;13365;52.208;5.488;2022-09-03T10:04:07;2.85;;;0.82;;
25439;SDS011;13365;52.208;5.488;2022-09-03T10:06:52;4.50;;;1.00;;
25439;SDS011;13365;52.208;5.488;2022-09-03T10:09:21;2.15;;;0.77;;
25439;SDS011;13365;52.208;5.488;2022-09-03T10:11:57;2.13;;;0.80;;
25439;SDS011;13365;52.208;5.488;2022-09-03T10:14:59;3.70;;;0.88;;
25439;SDS011;13365;52.208;5.488;2022-09-03T10:20:25;2.13;;;0.70;;
25439;SDS011;13365;52.208;5.488;2022-09-03T10:28:27;3.33;;;1.25;;
25439;SDS011;13365;52.208;5.488;2022-09-03T10:33:33;5.70;;;0.80;;
25439;SDS011;13365;52.208;5.488;2022-09-03T10:36:29;1.27;;;0.70;;
25439;SDS011;13365;52.208;5.488;2022-09-03T10:39:08;2.35;;;0.70;;
25439;SDS011;13365;52.208;5.488;2022-09-03T10:52:26;2.83;;;0.93;;
25439;SDS011;13365;52.208;5.488;2022-09-03T10:55:12;0.95;;;0.60;;
25439;SDS011;13365;52.208;5.488;2022-09-03T11:06:54;2.47;;;1.25;;
25439;SDS011;13365;52.208;5.488;2022-09-03T11:11:59;3.95;;;0.90;;
25439;SDS011;13365;52.208;5.488;2022-09-03T11:14:33;3.05;;;0.93;;
25439;SDS011;13365;52.208;5.488;2022-09-03T11:17:21;3.78;;;0.93;;
25439;SDS011;13365;52.208;5.488;2022-09-03T11:19:51;5.75;;;0.90;;
25439;SDS011;13365;52.208;5.488;2022-09-03T11:22:30;2.88;;;1.42;;
25439;SDS011;13365;52.208;5.488;2022-09-03T11:24:57;2.50;;;0.80;;
25439;SDS011;13365;52.208;5.488;2022-09-03T11:27:36;2.10;;;1.00;;
25439;SDS011;13365;52.208;5.488;2022-09-03T11:33:08;2.75;;;0.77;;
25439;SDS011;13365;52.208;5.488;2022-09-03T11:38:04;2.20;;;1.00;;
25439;SDS011;13365;52.208;5.488;2022-09-03T11:40:59;1.60;;;0.75;;
25439;SDS011;13365;52.208;5.488;2022-09-03T11:43:31;1.50;;;0.70;;
25439;SDS011;13365;52.208;5.488;2022-09-03T11:46:25;1.43;;;0.93;;
25439;SDS011;13365;52.208;5.488;2022-09-03T11:49:24;1.33;;;0.90;;
25439;SDS011;13365;52.208;5.488;2022-09-03T11:51:56;3.42;;;1.00;;
25439;SDS011;13365;52.208;5.488;2022-09-03T11:54:30;3.55;;;0.75;;
25439;SDS011;13365;52.208;5.488;2022-09-03T11:57:15;3.67;;;0.93;;
25439;SDS011;13365;52.208;5.488;2022-09-03T11:59:48;3.78;;;0.80;;
25439;SDS011;13365;52.208;5.488;2022-09-03T12:10:57;4.93;;;1.00;;
25439;SDS011;13365;52.208;5.488;2022-09-03T12:13:50;3.72;;;1.00;;
25439;SDS011;13365;52.208;5.488;2022-09-03T12:22:16;3.97;;;1.23;;
25439;SDS011;13365;52.208;5.488;2022-09-03T12:24:44;3.83;;;0.80;;
25439;SDS011;13365;52.208;5.488;2022-09-03T12:27:20;6.20;;;0.98;;
25439;SDS011;13365;52.208;5.488;2022-09-03T12:29:57;1.67;;;0.88;;
25439;SDS011;13365;52.208;5.488;2022-09-03T12:32:33;4.63;;;0.90;;
25439;SDS011;13365;52.208;5.488;2022-09-03T12:35:17;3.95;;;0.82;;
25439;SDS011;13365;52.208;5.488;2022-09-03T12:37:45;1.45;;;1.02;;
25439;SDS011;13365;52.208;5.488;2022-09-03T12:40:15;4.07;;;0.90;;
25439;SDS011;13365;52.208;5.488;2022-09-03T12:42:50;1.70;;;0.75;;
25439;SDS011;13365;52.208;5.488;2022-09-03T12:45:21;1.20;;;0.80;;
25439;SDS011;13365;52.208;5.488;2022-09-03T12:47:48;2.13;;;1.13;;
25439;SDS011;13365;52.208;5.488;2022-09-03T12:50:19;2.40;;;1.10;;
25439;SDS011;13365;52.208;5.488;2022-09-03T12:52:50;0.70;;;0.60;;
25439;SDS011;13365;52.208;5.488;2022-09-03T13:01:05;4.30;;;1.05;;
25439;SDS011;13365;52.208;5.488;2022-09-03T13:06:12;3.42;;;1.00;;
25439;SDS011;13365;52.208;5.488;2022-09-03T13:08:53;4.97;;;1.05;;
25439;SDS011;13365;52.208;5.488;2022-09-03T13:11:27;4.40;;;0.85;;
25439;SDS011;13365;52.208;5.488;2022-09-03T13:14:07;8.25;;;1.83;;
25439;SDS011;13365;52.208;5.488;2022-09-03T13:30:58;2.92;;;1.10;;
25439;SDS011;13365;52.208;5.488;2022-09-03T13:33:42;1.80;;;1.00;;
25439;SDS011;13365;52.208;5.488;2022-09-03T13:36:15;4.03;;;0.93;;
25439;SDS011;13365;52.208;5.488;2022-09-03T13:38:49;2.55;;;0.75;;
25439;SDS011;13365;52.208;5.488;2022-09-03T13:44:15;1.85;;;0.90;;
25439;SDS011;13365;52.208;5.488;2022-09-03T13:47:00;1.20;;;0.90;;
25439;SDS011;13365;52.208;5.488;2022-09-03T13:49:39;4.57;;;1.05;;
25439;SDS011;13365;52.208;5.488;2022-09-03T13:52:30;3.03;;;0.95;;
25439;SDS011;13365;52.208;5.488;2022-09-03T13:55:53;4.30;;;1.00;;
25439;SDS011;13365;52.208;5.488;2022-09-03T14:06:34;3.70;;;1.10;;
25439;SDS011;13365;52.208;5.488;2022-09-03T14:12:13;2.17;;;1.00;;
25439;SDS011;13365;52.208;5.488;2022-09-03T14:17:25;4.32;;;1.10;;
25439;SDS011;13365;52.208;5.488;2022-09-03T14:22:54;2.53;;;1.00;;
25439;SDS011;13365;52.208;5.488;2022-09-03T14:25:30;1.52;;;0.95;;
25439;SDS011;13365;52.208;5.488;2022-09-03T14:33:43;3.22;;;1.30;;
25439;SDS011;13365;52.208;5.488;2022-09-03T14:36:36;3.95;;;1.10;;
25439;SDS011;13365;52.208;5.488;2022-09-03T14:45:13;3.92;;;1.10;;
25439;SDS011;13365;52.208;5.488;2022-09-03T14:53:48;10.07;;;1.40;;
25439;SDS011;13365;52.208;5.488;2022-09-03T14:56:35;7.78;;;1.63;;
25439;SDS011;13365;52.208;5.488;2022-09-03T15:16:27;5.05;;;1.52;;
25439;SDS011;13365;52.208;5.488;2022-09-03T15:27:56;4.35;;;1.00;;
25439;SDS011;13365;52.208;5.488;2022-09-03T15:30:33;3.83;;;1.30;;
25439;SDS011;13365;52.208;5.488;2022-09-03T15:35:51;4.60;;;1.20;;
25439;SDS011;13365;52.208;5.488;2022-09-03T15:38:33;6.75;;;1.40;;
25439;SDS011;13365;52.208;5.488;2022-09-03T15:41:08;7.40;;;1.30;;
25439;SDS011;13365;52.208;5.488;2022-09-03T15:46:29;1.65;;;1.15;;
25439;SDS011;13365;52.208;5.488;2022-09-03T15:49:17;3.03;;;1.20;;
25439;SDS011;13365;52.208;5.488;2022-09-03T15:54:48;3.47;;;1.20;;
25439;SDS011;13365;52.208;5.488;2022-09-03T15:57:36;7.95;;;1.20;;
25439;SDS011;13365;52.208;5.488;2022-09-03T16:06:43;4.47;;;1.35;;
25439;SDS011;13365;52.208;5.488;2022-09-03T16:09:29;2.67;;;0.98;;
25439;SDS011;13365;52.208;5.488;2022-09-03T16:15:06;3.63;;;1.10;;
25439;SDS011;13365;52.208;5.488;2022-09-03T16:17:35;4.35;;;1.25;;
25439;SDS011;13365;52.208;5.488;2022-09-03T16:20:13;4.72;;;1.60;;
25439;SDS011;13365;52.208;5.488;2022-09-03T16:25:55;3.30;;;0.90;;
25439;SDS011;13365;52.208;5.488;2022-09-03T16:28:42;3.55;;;1.02;;
25439;SDS011;13365;52.208;5.488;2022-09-03T16:31:25;1.60;;;1.02;;
25439;SDS011;13365;52.208;5.488;2022-09-03T16:40:21;6.85;;;0.85;;
25439;SDS011;13365;52.208;5.488;2022-09-03T16:42:57;3.80;;;1.30;;
25439;SDS011;13365;52.208;5.488;2022-09-03T16:45:37;2.40;;;1.10;;
25439;SDS011;13365;52.208;5.488;2022-09-03T17:10:43;3.38;;;1.50;;
25439;SDS011;13365;52.208;5.488;2022-09-03T17:16:02;5.38;;;1.30;;
25439;SDS011;13365;52.208;5.488;2022-09-03T17:21:30;3.42;;;1.38;;
25439;SDS011;13365;52.208;5.488;2022-09-03T17:24:35;1.58;;;1.27;;
25439;SDS011;13365;52.208;5.488;2022-09-03T17:27:11;3.47;;;1.50;;
25439;SDS011;13365;52.208;5.488;2022-09-03T17:30:25;2.38;;;1.10;;
25439;SDS011;13365;52.208;5.488;2022-09-03T17:36:16;3.72;;;1.23;;
25439;SDS011;13365;52.208;5.488;2022-09-03T17:50:20;7.35;;;1.70;;
25439;SDS011;13365;52.208;5.488;2022-09-03T17:52:51;7.85;;;2.00;;
25439;SDS011;13365;52.208;5.488;2022-09-03T17:55:49;2.97;;;1.58;;
25439;SDS011;13365;52.208;5.488;2022-09-03T17:58:30;5.25;;;1.70;;
25439;SDS011;13365;52.208;5.488;2022-09-03T18:11:47;6.55;;;1.50;;
25439;SDS011;13365;52.208;5.488;2022-09-03T18:16:55;10.40;;;1.83;;
25439;SDS011;13365;52.208;5.488;2022-09-03T18:22:30;4.15;;;1.65;;
25439;SDS011;13365;52.208;5.488;2022-09-03T18:25:31;7.85;;;1.70;;
25439;SDS011;13365;52.208;5.488;2022-09-03T18:28:20;4.70;;;1.90;;
25439;SDS011;13365;52.208;5.488;2022-09-03T18:31:14;4.05;;;1.65;;
25439;SDS011;13365;52.208;5.488;2022-09-03T18:34:01;8.77;;;1.77;;
25439;SDS011;13365;52.208;5.488;2022-09-03T18:36:46;9.50;;;1.80;;
25439;SDS011;13365;52.208;5.488;2022-09-03T18:39:30;3.72;;;1.55;;
25439;SDS011;13365;52.208;5.488;2022-09-03T18:51:24;5.10;;;1.58;;
25439;SDS011;13365;52.208;5.488;2022-09-03T18:57:23;6.95;;;2.15;;
25439;SDS011;13365;52.208;5.488;2022-09-03T19:00:13;7.88;;;1.73;;
25439;SDS011;13365;52.208;5.488;2022-09-03T19:09:06;6.13;;;1.90;;
25439;SDS011;13365;52.208;5.488;2022-09-03T19:12:27;4.90;;;2.08;;
25439;SDS011;13365;52.208;5.488;2022-09-03T19:15:16;5.20;;;1.60;;
25439;SDS011;13365;52.208;5.488;2022-09-03T19:18:09;9.20;;;1.88;;
25439;SDS011;13365;52.208;5.488;2022-09-03T19:24:16;6.45;;;1.80;;
25439;SDS011;13365;52.208;5.488;2022-09-03T19:36:03;10.85;;;2.35;;
25439;SDS011;13365;52.208;5.488;2022-09-03T19:39:13;11.48;;;2.67;;
25439;SDS011;13365;52.208;5.488;2022-09-03T19:42:13;8.90;;;2.42;;
25439;SDS011;13365;52.208;5.488;2022-09-03T19:45:11;6.80;;;2.40;;
25439;SDS011;13365;52.208;5.488;2022-09-03T19:51:37;11.85;;;2.25;;
25439;SDS011;13365;52.208;5.488;2022-09-03T19:54:04;5.00;;;2.13;;
25439;SDS011;13365;52.208;5.488;2022-09-03T19:56:50;3.72;;;2.33;;
25439;SDS011;13365;52.208;5.488;2022-09-03T19:59:38;4.80;;;2.25;;
25439;SDS011;13365;52.208;5.488;2022-09-03T20:02:23;8.98;;;2.38;;
25439;SDS011;13365;52.208;5.488;2022-09-03T20:05:41;5.70;;;2.38;;
25439;SDS011;13365;52.208;5.488;2022-09-03T20:08:19;6.70;;;2.33;;
25439;SDS011;13365;52.208;5.488;2022-09-03T20:11:05;6.45;;;2.28;;
25439;SDS011;13365;52.208;5.488;2022-09-03T20:13:40;4.28;;;2.33;;
25439;SDS011;13365;52.208;5.488;2022-09-03T20:16:28;5.15;;;2.53;;
25439;SDS011;13365;52.208;5.488;2022-09-03T20:19:09;6.93;;;2.30;;
25439;SDS011;13365;52.208;5.488;2022-09-03T20:27:39;11.23;;;2.42;;
25439;SDS011;13365;52.208;5.488;2022-09-03T20:30:19;6.75;;;2.85;;
25439;SDS011;13365;52.208;5.488;2022-09-03T20:32:51;7.97;;;2.35;;
25439;SDS011;13365;52.208;5.488;2022-09-03T20:37:59;6.75;;;2.70;;
25439;SDS011;13365;52.208;5.488;2022-09-03T20:46:11;9.48;;;3.30;;
25439;SDS011;13365;52.208;5.488;2022-09-03T20:48:53;8.50;;;3.13;;
25439;SDS011;13365;52.208;5.488;2022-09-03T20:51:31;6.93;;;3.15;;
25439;SDS011;13365;52.208;5.488;2022-09-03T21:02:23;9.98;;;3.33;;
25439;SDS011;13365;52.208;5.488;2022-09-03T21:05:18;6.10;;;3.13;;
25439;SDS011;13365;52.208;5.488;2022-09-03T21:07:59;4.60;;;3.15;;
25439;SDS011;13365;52.208;5.488;2022-09-03T21:10:49;10.15;;;4.30;;
25439;SDS011;13365;52.208;5.488;2022-09-03T21:26:44;9.25;;;4.43;;
25439;SDS011;13365;52.208;5.488;2022-09-03T21:34:26;8.70;;;3.58;;
25439;SDS011;13365;52.208;5.488;2022-09-03T21:36:55;5.50;;;3.50;;
25439;SDS011;13365;52.208;5.488;2022-09-03T21:39:25;8.82;;;3.13;;
25439;SDS011;13365;52.208;5.488;2022-09-03T21:44:55;7.72;;;3.90;;
25439;SDS011;13365;52.208;5.488;2022-09-03T21:47:22;7.72;;;3.28;;
25439;SDS011;13365;52.208;5.488;2022-09-03T21:49:57;6.53;;;3.30;;
25439;SDS011;13365;52.208;5.488;2022-09-03T21:55:18;10.30;;;2.58;;